Data for 12/06/2009

Time Sea-Level Adjusted Pressure Absolute Pressure Temperature Relative Humidity Dew Point   
(mb) (inHg) (mb) (inHg) (C) (F) (%) (C) (F)
00:05 1019 30.09 848 25.04 -12.7 9.1 70 -17.1 1.2
00:10 1019 30.09 848 25.04 -12.8 9 71 -16.9 1.5
00:15 1019 30.09 848 25.04 -12.9 8.9 72 -16.9 1.6
00:20 1019 30.09 848 25.04 -12.9 8.9 72 -16.8 1.7
00:25 1019 30.09 848 25.04 -13 8.6 73 -16.8 1.7
00:30 1019 30.09 848 25.04 -13 8.6 71 -17.1 1.1
00:35 1019 30.09 848 25.04 -13 8.7 70 -17.3 0.9
00:40 1019 30.09 848 25.04 -13 8.6 71 -17.2 1
00:45 1019 30.09 848 25.04 -13 8.6 74 -16.8 1.8
00:50 1019 30.09 848 25.04 -13 8.5 75 -16.6 2.2
00:55 1019 30.09 848 25.04 -13.1 8.4 79 -16.1 3
01:00 1019 30.09 848 25.04 -13.2 8.2 80 -16 3.3
01:05 1019 30.09 848 25.04 -13.3 8 82 -15.8 3.6
01:10 1019 30.09 848 25.04 -13.4 8 82 -15.8 3.5
01:15 1019 30.09 848 25.04 -13.3 8.1 82 -15.8 3.6
01:20 1019 30.09 848 25.04 -13.4 7.9 82 -15.8 3.6
01:25 1019 30.09 848 25.04 -13.5 7.8 83 -15.8 3.5
01:30 1019 30.09 848 25.04 -13.5 7.7 83 -15.8 3.6
01:35 1019 30.09 848 25.04 -13.5 7.8 84 -15.7 3.7
01:40 1019 30.09 848 25.04 -13.4 8 84 -15.5 4.1
01:45 1019 30.09 848 25.04 -13.2 8.3 83 -15.4 4.2
01:50 1019 30.09 848 25.04 -13 8.6 84 -15.2 4.7
01:55 1019 30.09 848 25.04 -12.9 8.7 85 -15 5
02:00 1019 30.09 848 25.04 -13 8.7 85 -15.1 4.9
02:05 1019 30.09 848 25.04 -13.2 8.3 86 -15 4.9
02:10 1019 30.09 848 25.04 -13.2 8.3 86 -15 4.9
02:15 1019 30.09 848 25.04 -13.1 8.4 86 -15 4.9
02:20 1019 30.09 848 25.04 -13.1 8.4 85 -15.1 4.8
02:25 1019 30.09 848 25.04 -13.3 8.1 86 -15.1 4.8
02:30 1019 30.09 848 25.04 -13.3 8 86 -15.3 4.5
02:35 1019 30.09 848 25.04 -13.4 7.9 86 -15.3 4.4
02:40 1019 30.09 848 25.04 -13.4 7.8 86 -15.3 4.4
02:45 1019 30.09 849 25.07 -13.4 7.9 86 -15.3 4.5
02:50 1019 30.09 849 25.07 -13.3 8 85 -15.3 4.5
02:55 1019 30.09 849 25.07 -13.3 8 84 -15.5 4.2
03:00 1019 30.09 849 25.07 -13.5 7.7 74 -17.3 0.9
03:05 1019 30.09 849 25.07 -13.6 7.6 73 -17.4 0.8
03:10 1019 30.09 849 25.07 -13.6 7.5 73 -17.5 0.6
03:15 1019 30.09 849 25.07 -13.6 7.5 68 -18.4 -1.1
03:20 1019 30.09 849 25.07 -13.7 7.4 66 -18.7 -1.6
03:25 1019 30.09 849 25.07 -13.8 7.2 66 -18.7 -1.7
03:30 1019 30.09 849 25.07 -13.8 7.1 66 -18.9 -2
03:35 1019 30.09 849 25.07 -13.9 7 66 -18.9 -2
03:40 1020 30.12 849 25.07 -13.9 7 66 -18.9 -2
03:45 1019 30.09 849 25.07 -13.9 7 68 -18.6 -1.5
03:50 1020 30.12 849 25.07 -14 6.9 68 -18.6 -1.5
03:55 1020 30.12 849 25.07 -14.1 6.7 70 -18.4 -1.2
04:00 1020 30.12 849 25.07 -14.1 6.6 73 -17.9 -0.2
04:05 1020 30.12 849 25.07 -14.2 6.4 78 -17.3 0.8
04:10 1020 30.12 849 25.07 -14.4 6.2 79 -17.2 1.1
04:15 1020 30.12 849 25.07 -14.5 6 79 -17.3 0.9
04:20 1020 30.12 849 25.07 -14.4 6 80 -17.1 1.2
04:25 1020 30.12 849 25.07 -14.5 5.9 81 -17 1.3
04:30 1020 30.12 849 25.07 -14.5 5.8 82 -17 1.4
04:35 1020 30.12 849 25.07 -14.6 5.8 82 -16.9 1.5
04:40 1020 30.12 849 25.07 -14.6 5.7 82 -17.1 1.3
04:45 1020 30.12 849 25.07 -14.7 5.6 82 -17 1.3
04:50 1020 30.12 849 25.07 -14.7 5.6 82 -17 1.3
04:55 1020 30.12 849 25.07 -14.7 5.5 82 -17.2 1.1
05:00 1020 30.12 849 25.07 -14.7 5.5 83 -17 1.5
05:05 1019 30.09 849 25.07 -14.7 5.5 81 -17.2 1
05:10 1019 30.09 849 25.07 -14.8 5.4 82 -17.2 1.1
05:15 1019 30.09 849 25.07 -14.7 5.5 80 -17.5 0.6
05:20 1019 30.09 849 25.07 -14.8 5.4 80 -17.5 0.6
05:25 1020 30.12 849 25.07 -14.8 5.3 80 -17.6 0.3
05:30 1020 30.12 849 25.07 -14.8 5.3 78 -17.9 -0.1
05:35 1020 30.12 849 25.07 -14.8 5.4 79 -17.7 0.1
05:40 1020 30.12 849 25.07 -14.9 5.2 78 -18 -0.4
05:45 1020 30.12 849 25.07 -14.9 5.1 75 -18.4 -1.1
05:50 1020 30.12 849 25.07 -15 5 75 -18.5 -1.4
05:55 1020 30.12 849 25.07 -15 4.9 75 -18.5 -1.4
06:00 1020 30.12 849 25.07 -15 4.9 75 -18.5 -1.3
06:05 1020 30.12 849 25.07 -15 4.9 75 -18.5 -1.3
06:10 1020 30.12 849 25.07 -15.1 4.9 76 -18.5 -1.2
06:15 1020 30.12 849 25.07 -15.1 4.7 78 -18.2 -0.7
06:20 1020 30.12 849 25.07 -15.2 4.6 79 -18 -0.4
06:25 1020 30.12 849 25.07 -15.3 4.5 79 -18.1 -0.5
06:30 1020 30.12 849 25.07 -15.3 4.5 80 -18 -0.4
06:35 1020 30.12 849 25.07 -15.4 4.3 81 -18 -0.4
06:40 1020 30.12 849 25.07 -15.4 4.2 81 -18 -0.4
06:45 1020 30.12 849 25.07 -15.5 4.2 80 -18.1 -0.6
06:50 1020 30.12 849 25.07 -15.5 4.2 80 -18.1 -0.7
06:55 1020 30.12 849 25.07 -15.4 4.2 81 -18 -0.5
07:00 1020 30.12 849 25.07 -15.4 4.2 81 -18 -0.5
07:05 1020 30.12 849 25.07 -15.5 4.2 82 -17.9 -0.3
07:10 1020 30.12 849 25.07 -15.5 4.1 81 -18 -0.4
07:15 1020 30.12 849 25.07 -15.5 4.1 81 -18.1 -0.5
07:20 1020 30.12 849 25.07 -15.6 4 82 -18 -0.4
07:25 1020 30.12 849 25.07 -15.6 4 83 -17.8 -0.1
07:30 1020 30.12 849 25.07 -15.6 3.9 83 -17.8 -0.1
07:35 1020 30.12 849 25.07 -15.6 3.9 83 -17.9 -0.2
07:40 1020 30.12 849 25.07 -15.6 3.9 83 -17.9 -0.2
07:45 1020 30.12 849 25.07 -15.6 3.9 83 -17.8 -0.1
07:50 1020 30.12 849 25.07 -15.6 3.9 81 -18.1 -0.6
07:55 1020 30.12 849 25.07 -15.6 3.9 81 -18.1 -0.6
08:00 1020 30.12 849 25.07 -15.6 3.9 80 -18.3 -0.9
08:05 1020 30.12 849 25.07 -15.6 3.9 75 -19 -2.3
08:10 1020 30.12 849 25.07 -15.6 3.9 78 -18.7 -1.7
08:15 1020 30.12 849 25.07 -15.7 3.8 79 -18.6 -1.5
08:20 1020 30.12 849 25.07 -15.8 3.7 79 -18.6 -1.6
08:25 1020 30.12 849 25.07 -15.7 3.7 77 -18.9 -2.1
08:30 1020 30.12 849 25.07 -15.8 3.6 79 -18.7 -1.7
08:35 1020 30.12 850 25.1 -15.8 3.6 80 -18.4 -1.2
08:40 1020 30.12 850 25.1 -15.8 3.6 81 -18.4 -1.1
08:45 1021 30.15 850 25.1 -15.8 3.6 80 -18.4 -1.2
08:50 1021 30.15 850 25.1 -15.7 3.7 81 -18.3 -0.9
08:55 1021 30.15 850 25.1 -15.7 3.8 81 -18.3 -0.9
09:00 1021 30.15 850 25.1 -15.6 3.9 80 -18.2 -0.8
09:05 1021 30.15 850 25.1 -15.6 3.9 81 -18.1 -0.6
09:10 1021 30.15 850 25.1 -15.5 4 78 -18.5 -1.3
09:15 1021 30.15 850 25.1 -15.5 4.1 78 -18.5 -1.3
09:20 1021 30.15 850 25.1 -15.5 4.1 79 -18.4 -1.1
09:25 1021 30.15 850 25.1 -15.5 4 79 -18.3 -1
09:30 1021 30.15 850 25.1 -15.6 4 78 -18.5 -1.4
09:35 1021 30.15 850 25.1 -15.6 4 75 -19.1 -2.3
09:40 1020 30.12 850 25.1 -15.5 4.1 69 -20 -4
09:45 1020 30.12 850 25.1 -15.4 4.2 69 -19.9 -3.8
09:50 1020 30.12 850 25.1 -15.3 4.4 67 -20.1 -4.2
09:55 1020 30.12 850 25.1 -15.4 4.3 69 -19.9 -3.8
10:00 1020 30.12 850 25.1 -15.3 4.4 67 -20.2 -4.3
10:05 1020 30.12 850 25.1 -15.2 4.7 68 -19.8 -3.7
10:10 1020 30.12 850 25.1 -15.2 4.6 73 -19.1 -2.4
10:15 1020 30.12 850 25.1 -15.1 4.8 72 -19.1 -2.3
10:20 1020 30.12 850 25.1 -15 5 70 -19.3 -2.7
10:25 1020 30.12 850 25.1 -14.9 5.1 70 -19.2 -2.5
10:30 1020 30.12 850 25.1 -14.8 5.4 72 -18.9 -1.9
10:35 1020 30.12 850 25.1 -14.9 5.2 73 -18.7 -1.7
10:40 1020 30.12 850 25.1 -15 4.9 73 -18.9 -2.1
10:45 1020 30.12 850 25.1 -15 4.9 72 -19.1 -2.3
10:50 1020 30.12 850 25.1 -15.3 4.5 73 -19.2 -2.5
10:55 1020 30.12 850 25.1 -15.4 4.4 72 -19.3 -2.7
11:00 1020 30.12 850 25.1 -15.3 4.6 72 -19.2 -2.5
11:05 1020 30.12 849 25.07 -15.4 4.2 73 -19.3 -2.7
11:10 1020 30.12 849 25.07 -15.5 4.1 73 -19.3 -2.7
11:15 1020 30.12 849 25.07 -15.4 4.4 73 -19.2 -2.6
11:20 1020 30.12 849 25.07 -15.3 4.5 69 -19.8 -3.6
11:25 1020 30.12 849 25.07 -15.1 4.9 70 -19.4 -2.9
11:30 1020 30.12 849 25.07 -15.1 4.9 69 -19.5 -3.1
11:35 1020 30.12 849 25.07 -15.3 4.6 69 -19.7 -3.4
11:40 1020 30.12 849 25.07 -15.3 4.6 69 -19.7 -3.4
11:45 1020 30.12 849 25.07 -15.1 4.8 68 -19.8 -3.7
11:50 1020 30.12 849 25.07 -15.1 4.8 69 -19.6 -3.4
11:55 1020 30.12 849 25.07 -15.1 4.9 69 -19.5 -3
12:00 1020 30.12 849 25.07 -15.1 4.9 69 -19.5 -3.2
12:05 1020 30.12 849 25.07 -15.3 4.5 70 -19.6 -3.3
12:10 1019 30.09 849 25.07 -15.2 4.7 64 -20.5 -4.9
12:15 1019 30.09 849 25.07 -14.9 5.1 64 -20.4 -4.6
12:20 1019 30.09 848 25.04 -15 5.1 62 -20.8 -5.4
12:25 1019 30.09 848 25.04 -14.9 5.3 61 -20.7 -5.3
12:30 1019 30.09 848 25.04 -14.9 5.1 61 -20.8 -5.5
12:35 1019 30.09 849 25.07 -14.9 5.1 62 -20.8 -5.4
12:40 1019 30.09 849 25.07 -14.9 5.3 63 -20.4 -4.8
12:45 1019 30.09 849 25.07 -14.8 5.3 67 -19.7 -3.4
12:50 1019 30.09 848 25.04 -15.1 4.8 68 -19.8 -3.6
12:55 1019 30.09 848 25.04 -15 4.9 68 -19.8 -3.6
13:00 1019 30.09 848 25.04 -14.9 5.2 66 -19.9 -3.8
13:05 1019 30.09 848 25.04 -14.9 5.3 62 -20.6 -5
13:10 1019 30.09 848 25.04 -15.1 4.8 71 -19.3 -2.8
13:15 1019 30.09 848 25.04 -15.3 4.4 72 -19.4 -2.9
13:20 1019 30.09 848 25.04 -15.2 4.6 68 -19.9 -3.8
13:25 1019 30.09 848 25.04 -15.1 4.9 63 -20.6 -5
13:30 1019 30.09 848 25.04 -15.2 4.7 65 -20.4 -4.7
13:35 1019 30.09 848 25.04 -15.3 4.4 67 -20.1 -4.1
13:40 1019 30.09 848 25.04 -15.2 4.7 66 -20.2 -4.4
13:45 1019 30.09 848 25.04 -15.3 4.5 65 -20.4 -4.8
13:50 1019 30.09 848 25.04 -15.4 4.3 68 -20 -4
13:55 1019 30.09 848 25.04 -15.4 4.3 68 -20 -4
14:00 1019 30.09 848 25.04 -15.4 4.2 68 -20.1 -4.1
14:05 1019 30.09 848 25.04 -15.5 4.1 66 -20.6 -5
14:10 1019 30.09 848 25.04 -15.4 4.2 64 -20.7 -5.2
14:15 1019 30.09 848 25.04 -15.4 4.3 63 -20.9 -5.5
14:20 1019 30.09 848 25.04 -15.4 4.2 61 -21.3 -6.4
14:25 1019 30.09 848 25.04 -15.4 4.2 62 -21.2 -6.2
14:30 1019 30.09 848 25.04 -15.4 4.3 61 -21.2 -6.2
14:35 1018 30.06 848 25.04 -15.5 4.1 60 -21.6 -6.9
14:40 1018 30.06 848 25.04 -15.6 4 60 -21.7 -7
14:45 1018 30.06 848 25.04 -15.5 4 60 -21.6 -6.8
14:50 1018 30.06 848 25.04 -15.7 3.8 60 -21.7 -7.1
14:55 1018 30.06 848 25.04 -15.6 4 66 -20.7 -5.2
15:00 1018 30.06 848 25.04 -15.8 3.7 68 -20.4 -4.7
15:05 1018 30.06 848 25.04 -15.7 3.7 65 -20.9 -5.6
15:10 1018 30.06 848 25.04 -15.8 3.5 67 -20.6 -5
15:15 1018 30.06 848 25.04 -16 3.2 67 -20.7 -5.3
15:20 1018 30.06 848 25.04 -16.1 3.1 70 -20.4 -4.8
15:25 1019 30.09 848 25.04 -16.2 2.8 70 -20.5 -4.9
15:30 1019 30.09 848 25.04 -16.3 2.7 70 -20.6 -5.1
15:35 1019 30.09 848 25.04 -16.3 2.7 71 -20.4 -4.8
15:40 1019 30.09 848 25.04 -16.4 2.4 72 -20.4 -4.8
15:45 1019 30.09 848 25.04 -16.4 2.5 71 -20.5 -4.9
15:50 1019 30.09 848 25.04 -16.3 2.6 68 -20.9 -5.5
15:55 1019 30.09 848 25.04 -16.4 2.4 67 -21.1 -6.1
16:00 1019 30.09 848 25.04 -16.6 2.2 69 -21.1 -5.9
16:05 1018 30.06 848 25.04 -16.8 1.7 70 -21.1 -6
16:10 1018 30.06 848 25.04 -17 1.3 73 -20.7 -5.3
16:15 1018 30.06 848 25.04 -17.3 0.8 75 -20.8 -5.4
16:20 1018 30.06 848 25.04 -17.4 0.8 75 -20.8 -5.4
16:25 1018 30.06 848 25.04 -17.5 0.5 76 -20.8 -5.5
16:30 1018 30.06 848 25.04 -17.6 0.4 75 -21 -5.7
16:35 1018 30.06 848 25.04 -17.6 0.2 76 -20.9 -5.7
16:40 1018 30.06 848 25.04 -17.7 0.2 75 -21.1 -6
16:45 1018 30.06 848 25.04 -17.8 -0 75 -21.2 -6.1
16:50 1019 30.09 848 25.04 -17.9 -0.1 75 -21.2 -6.2
16:55 1019 30.09 848 25.04 -17.9 -0.2 74 -21.4 -6.6
17:00 1019 30.09 848 25.04 -17.9 -0.3 75 -21.4 -6.5
17:05 1019 30.09 848 25.04 -18 -0.4 75 -21.4 -6.5
17:10 1019 30.09 848 25.04 -18 -0.5 75 -21.4 -6.6
17:15 1019 30.09 848 25.04 -18.1 -0.5 75 -21.4 -6.6
17:20 1019 30.09 848 25.04 -18.1 -0.6 75 -21.5 -6.7
17:25 1019 30.09 848 25.04 -18.1 -0.6 75 -21.5 -6.6
17:30 1019 30.09 848 25.04 -18.1 -0.7 75 -21.5 -6.7
17:35 1019 30.09 848 25.04 -18.2 -0.8 75 -21.6 -6.9
17:40 1019 30.09 848 25.04 -18.3 -1 75 -21.7 -7.1
17:45 1019 30.09 848 25.04 -18.4 -1.1 75 -21.7 -7.1
17:50 1019 30.09 848 25.04 -18.4 -1.1 76 -21.7 -7.1
17:55 1019 30.09 848 25.04 -18.4 -1.1 76 -21.7 -7
18:00 1019 30.09 848 25.04 -18.4 -1.1 74 -22 -7.6
18:05 1019 30.09 848 25.04 -18.5 -1.3 74 -22 -7.6
18:10 1019 30.09 848 25.04 -18.6 -1.4 75 -21.9 -7.5
18:15 1019 30.09 848 25.04 -18.6 -1.5 74 -22.1 -7.9
18:20 1019 30.09 848 25.04 -18.7 -1.7 75 -22.1 -7.8
18:25 1019 30.09 848 25.04 -18.7 -1.7 75 -22.2 -7.9
18:30 1019 30.09 848 25.04 -18.9 -1.9 75 -22.3 -8.1
18:35 1019 30.09 848 25.04 -18.9 -2 75 -22.2 -8
18:40 1019 30.09 848 25.04 -19 -2.1 76 -22.2 -8
18:45 1019 30.09 848 25.04 -19 -2.2 76 -22.2 -8
18:50 1019 30.09 848 25.04 -19.1 -2.3 76 -22.3 -8.2
18:55 1018 30.06 848 25.04 -19.1 -2.5 76 -22.4 -8.3
19:00 1018 30.06 848 25.04 -19.2 -2.5 75 -22.5 -8.6
19:05 1019 30.09 848 25.04 -19.2 -2.6 76 -22.5 -8.5
19:10 1019 30.09 848 25.04 -19.3 -2.7 76 -22.5 -8.4
19:15 1019 30.09 848 25.04 -19.2 -2.6 76 -22.5 -8.6
19:20 1019 30.09 848 25.04 -19.3 -2.7 75 -22.6 -8.7
19:25 1019 30.09 848 25.04 -19.3 -2.7 75 -22.6 -8.7
19:30 1019 30.09 848 25.04 -19.4 -2.8 75 -22.8 -9
19:35 1019 30.09 848 25.04 -19.4 -3 75 -22.8 -9
19:40 1019 30.09 848 25.04 -19.4 -3 74 -22.9 -9.3
19:45 1018 30.06 848 25.04 -19.4 -3 74 -22.9 -9.3
19:50 1018 30.06 848 25.04 -19.4 -3 73 -23.1 -9.5
19:55 1018 30.06 848 25.04 -19.5 -3.1 73 -23.2 -9.7
20:00 1018 30.06 848 25.04 -19.5 -3.1 73 -23.2 -9.8
20:05 1018 30.06 848 25.04 -19.5 -3.1 72 -23.3 -10
20:10 1018 30.06 848 25.04 -19.5 -3.1 72 -23.3 -10
20:15 1018 30.06 848 25.04 -19.5 -3.2 72 -23.3 -10
20:20 1018 30.06 847 25.01 -19.6 -3.2 72 -23.5 -10.2
20:25 1018 30.06 847 25.01 -19.6 -3.3 72 -23.5 -10.3
20:30 1018 30.06 847 25.01 -19.6 -3.3 72 -23.5 -10.2
20:35 1018 30.06 847 25.01 -19.7 -3.5 72 -23.5 -10.4
20:40 1018 30.06 847 25.01 -19.8 -3.6 72 -23.5 -10.4
20:45 1018 30.06 847 25.01 -19.8 -3.7 72 -23.7 -10.7
20:50 1018 30.06 847 25.01 -19.8 -3.7 72 -23.6 -10.5
20:55 1018 30.06 847 25.01 -19.9 -3.7 72 -23.7 -10.6
21:00 1018 30.06 847 25.01 -19.9 -3.8 73 -23.6 -10.5
21:05 1018 30.06 847 25.01 -19.9 -3.8 72 -23.8 -10.8
21:10 1018 30.06 847 25.01 -20 -3.9 72 -23.8 -10.8
21:15 1018 30.06 847 25.01 -20 -4 72 -23.8 -10.8
21:20 1018 30.06 847 25.01 -20.1 -4.1 72 -23.8 -10.9
21:25 1018 30.06 847 25.01 -20.1 -4.3 72 -23.9 -11
21:30 1018 30.06 847 25.01 -20.2 -4.3 73 -23.9 -11.1
21:35 1018 30.06 847 25.01 -20.3 -4.5 73 -24 -11.2
21:40 1018 30.06 847 25.01 -20.3 -4.5 73 -24 -11.2
21:45 1018 30.06 847 25.01 -20.3 -4.5 73 -23.9 -11
21:50 1018 30.06 847 25.01 -20.3 -4.6 73 -24 -11.3
21:55 1018 30.06 847 25.01 -20.4 -4.7 73 -24.1 -11.4
22:00 1018 30.06 847 25.01 -20.4 -4.7 73 -24 -11.2
22:05 1018 30.06 847 25.01 -20.4 -4.8 73 -24 -11.3
22:10 1018 30.06 847 25.01 -20.5 -4.8 74 -24 -11.2
22:15 1018 30.06 847 25.01 -20.5 -4.9 73 -24.2 -11.5
22:20 1018 30.06 847 25.01 -20.5 -5 73 -24.2 -11.6
22:25 1018 30.06 847 25.01 -20.6 -5 73 -24.2 -11.6
22:30 1018 30.06 847 25.01 -20.7 -5.2 73 -24.3 -11.8
22:35 1018 30.06 847 25.01 -20.7 -5.3 73 -24.4 -11.9
22:40 1018 30.06 847 25.01 -20.7 -5.3 73 -24.4 -11.9
22:45 1018 30.06 847 25.01 -20.8 -5.4 72 -24.6 -12.2
22:50 1018 30.06 847 25.01 -20.8 -5.4 73 -24.5 -12.1
22:55 1018 30.06 847 25.01 -20.8 -5.4 72 -24.7 -12.4
23:00 1018 30.06 847 25.01 -20.8 -5.5 72 -24.7 -12.4
23:05 1018 30.06 847 25.01 -20.8 -5.5 71 -24.8 -12.6
23:10 1018 30.06 847 25.01 -20.9 -5.5 72 -24.7 -12.4
23:15 1018 30.06 847 25.01 -20.9 -5.6 72 -24.7 -12.5
23:20 1018 30.06 847 25.01 -20.9 -5.6 72 -24.7 -12.4
23:25 1018 30.06 847 25.01 -20.9 -5.6 72 -24.6 -12.4
23:30 1018 30.06 847 25.01 -20.9 -5.6 73 -24.6 -12.3
23:35 1018 30.06 847 25.01 -20.9 -5.7 72 -24.7 -12.4
23:40 1018 30.06 847 25.01 -20.9 -5.7 73 -24.5 -12.2
23:45 1018 30.06 847 25.01 -20.9 -5.7 73 -24.6 -12.3
23:50 1018 30.06 847 25.01 -20.9 -5.7 73 -24.6 -12.2
23:55 1018 30.06 847 25.01 -20.9 -5.7 72 -24.7 -12.5
24:00 1018 30.06 847 25.01 -21 -5.7 72 -24.8 -12.6